FW7522 Weather Reports


Display with metric or nautical units.
time (UTC)temp
F
wind
direction
speed
MPH
gust
MPH
rain 1hr
in
rain 24hr
in
rain mn
in
humidity
%
barometer
mb
20210802224318 78 104 2.0 3.0 0.00 0.00 0.00 53 1022.9
20210802224220 78 78 3.0 4.0 0.00 0.00 0.00 53 1022.9
20210802224139 78 91 3.0 4.0 0.00 0.00 0.00 54 1022.8
20210802223118 78 51 3.0 6.0 0.00 0.00 0.00 53 1023.0
20210802223020 78 89 2.0 4.0 0.00 0.00 0.00 52 1023.0
20210802222919 78 52 2.0 4.0 0.00 0.00 0.00 53 1023.1
20210802222819 78 69 2.0 4.0 0.00 0.00 0.00 53 1023.0
20210802221818 78 48 1.0 3.0 0.00 0.00 0.00 54 1023.0
20210802221721 78 8 1.0 3.0 0.00 0.00 0.00 54 1023.1
20210802221619 78 79 2.0 4.0 0.00 0.00 0.00 53 1023.1
20210802221518 78 148 0.0 2.0 0.00 0.00 0.00 53 1023.1
20210802220518 78 41 2.0 4.0 0.00 0.00 0.00 55 1023.1
20210802215520 77 121 1.0 3.0 0.00 0.00 0.00 54 1023.1
20210802215419 77 95 3.0 5.0 0.00 0.00 0.00 55 1023.3
20210802214418 76 42 0.0 2.0 0.00 0.00 0.00 56 1023.3
20210802214318 76 93 1.0 2.0 0.00 0.00 0.00 57 1023.3
20210802214219 76 77 0.0 2.0 0.00 0.00 0.00 57 1023.4
20210802214121 76 80 1.0 2.0 0.00 0.00 0.00 56 1023.4
20210802213219 76 67 3.0 4.0 0.00 0.00 0.00 58 1023.4
20210802212221 76 92 1.0 2.0 0.00 0.00 0.00 57 1023.6
20210802211219 76 87 2.0 4.0 0.00 0.00 0.00 57 1023.6
20210802211118 76 67 2.0 3.0 0.00 0.00 0.00 58 1023.5
20210802210124 76 37 2.0 4.0 0.00 0.00 0.00 59 1023.6
20210802205119 75 100 0.0 2.0 0.00 0.00 0.00 58 1023.5
20210802204118 74 112 1.0 2.0 0.00 0.00 0.00 60 1023.6
20210802203118 74 77 1.0 2.0 0.00 0.00 0.00 60 1023.6
20210802202119 74 91 3.0 4.0 0.00 0.00 0.00 61 1023.5
20210802201118 75 90 3.0 4.0 0.00 0.00 0.00 59 1023.6
20210802200119 74 95 1.0 2.0 0.00 0.00 0.00 61 1023.5
20210802200017 74 112 2.0 2.0 0.00 0.00 0.00 62 1023.5
20210802195925 74 67 0.0 3.0 0.00 0.00 0.00 62 1023.6
20210802194918 74 348 1.0 2.0 0.00 0.00 0.00 62 1023.5
20210802194820 74 140 0.0 2.0 0.00 0.00 0.00 62 1023.6
20210802194740 74 81 1.0 2.0 0.00 0.00 0.00 61 1023.6
20210802193719 74 65 3.0 5.0 0.00 0.00 0.00 62 1023.5
20210802192719 73 348 1.0 4.0 0.00 0.00 0.00 63 1023.5
20210802192624 73 50 1.0 3.0 0.00 0.00 0.00 64 1023.5
20210802191718 73 79 3.0 6.0 0.00 0.00 0.00 65 1023.7
20210802190720 72 45 2.0 4.0 0.00 0.00 0.00 65 1023.6
20210802190618 72 97 2.0 3.0 0.00 0.00 0.00 64 1023.7
20210802190538 72 92 1.0 3.0 0.00 0.00 0.00 65 1023.7
20210802185518 72 43 2.0 4.0 0.00 0.00 0.00 65 1023.8
20210802184519 72 57 0.0 2.0 0.00 0.00 0.00 65 1023.7
20210802183519 72 91 0.0 2.0 0.00 0.00 0.00 65 1023.8
20210802182517 72 76 4.0 6.0 0.00 0.00 0.00 65 1023.6
20210802182417 72 85 2.0 4.0 0.00 0.00 0.00 66 1023.6
20210802181517 71 64 3.0 5.0 0.00 0.00 0.00 67 1023.5
20210802180518 70 69 1.0 2.0 0.00 0.00 0.00 68 1023.6
20210802175518 71 97 0.0 2.0 0.00 0.00 0.00 68 1023.7
20210802175417 71 84 2.0 4.0 0.00 0.00 0.00 67 1023.8
20210802175320 71 78 3.0 5.0 0.00 0.00 0.00 68 1023.7
20210802174317 70 64 1.0 2.0 0.00 0.00 0.00 70 1023.7
20210802174218 70 95 0.0 2.0 0.00 0.00 0.00 70 1023.8
20210802173220 69 82 2.0 4.0 0.00 0.00 0.00 70 1023.7
20210802172317 69 84 4.0 5.0 0.00 0.00 0.00 69 1023.8
20210802171318 70 83 1.0 5.0 0.00 0.00 0.00 70 1023.5
20210802170317 69 75 2.0 3.0 0.00 0.00 0.00 69 1023.7
20210802165319 69 95 0.0 2.0 0.00 0.00 0.00 71 1023.6
20210802164318 69 136 1.0 2.0 0.00 0.00 0.00 72 1023.8
20210802164217 69 128 2.0 3.0 0.00 0.00 0.00 72 1023.8
20210802163218 68 97 2.0 3.0 0.00 0.00 0.00 72 1023.7
20210802162317 67 77 0.0 0.0 0.00 0.00 0.00 73 1023.7
20210802161417 68 110 1.0 3.0 0.00 0.00 0.00 73 1023.8
20210802161319 68 90 2.0 3.0 0.00 0.00 0.00 73 1023.8
20210802161219 68 75 2.0 3.0 0.00 0.00 0.00 73 1023.7
20210802161118 68 67 1.0 3.0 0.00 0.00 0.00 73 1023.7
20210802160118 67 71 2.0 3.0 0.00 0.00 0.00 73 1023.8
20210802155118 67 95 0.0 2.0 0.00 0.00 0.00 74 1023.7
20210802154118 67 112 0.0 0.0 0.00 0.00 0.00 75 1023.8
20210802153119 66 112 0.0 0.0 0.00 0.00 0.00 76 1023.7
20210802152120 65 112 0.0 0.0 0.00 0.00 0.00 77 1023.7
20210802152018 65 112 0.0 0.0 0.00 0.00 0.00 77 1023.8
20210802151018 65 112 2.0 2.0 0.00 0.00 0.00 79 1023.7
20210802150117 65 90 1.0 2.0 0.00 0.00 0.00 79 1023.8
20210802150017 64 90 2.0 3.0 0.00 0.00 0.00 78 1023.7
20210802145019 64 157 0.0 0.0 0.00 0.00 0.00 79 1023.6
20210802144918 64 157 0.0 0.0 0.00 0.00 0.00 79 1023.7
20210802144818 65 157 0.0 0.0 0.00 0.00 0.00 79 1023.8
20210802143819 64 90 0.0 0.0 0.00 0.00 0.00 78 1023.6
20210802142819 64 90 0.0 0.0 0.00 0.00 0.00 80 1023.7
20210802141918 63 90 1.0 2.0 0.00 0.00 0.00 82 1023.7
20210802141837 63 107 1.0 2.0 0.00 0.00 0.00 82 1023.6
20210802141719 63 222 0.0 0.0 0.00 0.00 0.00 81 1023.7
20210802140817 63 225 0.0 0.0 0.00 0.00 0.00 82 1023.7
20210802135836 62 225 0.0 0.0 0.00 0.00 0.00 82 1023.6
20210802135718 62 225 0.0 0.0 0.00 0.00 0.00 82 1023.6
20210802134718 63 225 1.0 2.0 0.00 0.00 0.00 81 1023.6
20210802133719 63 225 0.0 0.0 0.00 0.00 0.00 81 1023.4
20210802132717 63 225 0.0 0.0 0.00 0.00 0.00 81 1023.3
20210802132616 63 225 0.0 1.0 0.00 0.00 0.00 81 1023.4
20210802132519 63 225 0.0 1.0 0.00 0.00 0.00 81 1023.4
20210802132417 63 225 1.0 2.0 0.00 0.00 0.00 81 1023.4
20210802132318 63 225 1.0 1.0 0.00 0.00 0.00 80 1023.4
20210802131317 63 225 2.0 2.0 0.00 0.00 0.00 81 1023.2
20210802131218 63 225 2.0 3.0 0.00 0.00 0.00 82 1023.3
20210802131118 63 225 2.0 2.0 0.00 0.00 0.00 82 1023.2
20210802130118 63 230 1.0 2.0 0.00 0.00 0.00 80 1023.1
20210802130017 63 247 1.0 2.0 0.00 0.00 0.00 81 1023.1
20210802125919 63 247 0.0 0.0 0.00 0.00 0.00 81 1023.0
20210802124918 63 247 0.0 0.0 0.00 0.00 0.00 81 1023.0
20210802124816 63 247 0.0 0.0 0.00 0.00 0.00 81 1023.1
20210802124717 63 247 0.0 0.0 0.00 0.00 0.00 81 1023.1
20210802123718 63 202 0.0 2.0 0.00 0.00 0.00 81 1022.8
20210802123617 63 202 0.0 0.0 0.00 0.00 0.00 80 1022.8
20210802122619 63 202 2.0 2.0 0.00 0.00 0.00 82 1023.0
20210802121618 63 202 1.0 1.0 0.00 0.00 0.00 81 1022.9
20210802120717 63 202 3.0 3.0 0.00 0.00 0.00 81 1023.0
20210802120617 63 202 3.0 3.0 0.00 0.00 0.00 81 1023.0
20210802115617 64 202 1.0 2.0 0.00 0.00 0.00 80 1022.9
20210802115519 64 202 2.0 2.0 0.00 0.00 0.00 80 1022.8
20210802115417 64 202 2.0 2.0 0.00 0.00 0.00 80 1023.0
20210802114417 63 202 2.0 2.0 0.00 0.00 0.00 79 1022.8
20210802114317 63 202 2.0 2.0 0.00 0.00 0.00 80 1022.7
20210802113318 64 90 0.0 0.0 0.00 0.00 0.00 78 1022.9
20210802113218 64 90 0.0 0.0 0.00 0.00 0.00 79 1022.8
20210802113117 64 90 0.0 0.0 0.00 0.00 0.00 79 1022.6
20210802113017 64 90 0.0 0.0 0.00 0.00 0.00 79 1022.8
20210802112017 64 90 0.0 0.0 0.00 0.00 0.00 79 1022.9
20210802111019 64 90 0.0 1.0 0.00 0.00 0.00 80 1022.7
20210802110116 65 225 0.0 0.0 0.00 0.00 0.00 79 1022.6
20210802110017 65 225 0.0 0.0 0.00 0.00 0.00 79 1022.6
20210802105116 64 225 2.0 3.0 0.00 0.00 0.00 80 1022.6
20210802104119 64 225 0.0 0.0 0.00 0.00 0.00 81 1022.6
20210802103120 64 225 0.0 0.0 0.00 0.00 0.00 80 1022.5
20210802102119 64 225 0.0 0.0 0.00 0.00 0.00 80 1022.5
20210802101118 64 225 0.0 0.0 0.00 0.00 0.00 80 1022.6
20210802100117 64 225 0.0 0.0 0.00 0.00 0.00 80 1022.4
20210802100017 64 225 0.0 1.0 0.00 0.00 0.00 80 1022.5
20210802095017 64 225 3.0 4.0 0.00 0.00 0.00 82 1022.5
20210802094919 64 225 3.0 4.0 0.00 0.00 0.00 82 1022.5
20210802094819 64 225 3.0 4.0 0.00 0.00 0.00 81 1022.6
20210802093819 64 225 1.0 2.0 0.00 0.00 0.00 81 1022.4
20210802092817 64 225 1.0 2.0 0.00 0.00 0.00 84 1022.5
20210802091817 64 225 0.0 0.0 0.00 0.00 0.00 83 1022.4
20210802091718 64 225 0.0 0.0 0.00 0.00 0.00 82 1022.5
20210802090718 64 225 2.0 2.0 0.00 0.00 0.00 82 1022.5
20210802085719 65 225 0.0 0.0 0.00 0.00 0.00 81 1022.5
20210802084717 65 225 2.0 2.0 0.00 0.00 0.00 79 1022.5
20210802083718 65 225 0.0 0.0 0.00 0.00 0.00 79 1022.5
20210802083616 65 225 0.0 0.0 0.00 0.00 0.00 79 1022.5
20210802083518 65 225 0.0 0.0 0.00 0.00 0.00 79 1022.7
20210802082516 66 225 1.0 2.0 0.00 0.00 0.00 77 1022.7
20210802082419 66 225 2.0 3.0 0.00 0.00 0.00 78 1022.7
20210802082318 66 225 2.0 3.0 0.00 0.00 0.00 78 1022.6
20210802081318 66 247 0.0 0.0 0.00 0.00 0.00 77 1022.6
20210802081218 66 247 0.0 0.0 0.00 0.00 0.00 77 1022.6
20210802080218 66 247 0.0 0.0 0.00 0.00 0.00 77 1022.7
20210802075316 66 247 0.0 0.0 0.00 0.00 0.00 76 1022.6
20210802074317 66 247 0.0 1.0 0.00 0.00 0.00 75 1022.6
20210802073316 67 247 0.0 0.0 0.00 0.00 0.00 75 1022.7
20210802073217 67 247 0.0 0.0 0.00 0.00 0.00 74 1022.5
20210802072219 67 247 0.0 0.0 0.00 0.00 0.00 74 1022.6
20210802071316 67 244 2.0 2.0 0.00 0.00 0.00 74 1022.6
20210802070318 67 209 1.0 2.0 0.00 0.00 0.00 74 1022.6
20210802070219 67 247 2.0 3.0 0.00 0.00 0.00 73 1022.7
20210802070058 67 247 2.0 3.0 0.00 0.00 0.00 74 1022.6
20210802065101 67 225 2.0 3.0 0.00 0.00 0.00 74 1022.6
20210802065001 67 225 2.0 3.0 0.00 0.00 0.00 74 1022.7
20210802064901 67 225 1.0 2.0 0.00 0.00 0.00 75 1022.7
20210802064759 67 225 2.0 2.0 0.00 0.00 0.00 74 1022.7
20210802063801 67 225 2.0 3.0 0.00 0.00 0.00 73 1022.7
20210802063701 67 225 2.0 3.0 0.00 0.00 0.00 74 1022.6
20210802063559 67 225 3.0 3.0 0.00 0.00 0.00 75 1022.6
20210802062616 67 225 1.0 1.0 0.00 0.00 0.00 74 1022.6
20210802062459 67 225 1.0 1.0 0.00 0.00 0.00 74 1022.5
20210802061458 67 225 1.0 1.0 0.00 0.00 0.00 74 1022.5
20210802060501 67 225 0.0 1.0 0.00 0.00 0.00 73 1022.6
20210802055558 67 225 2.0 3.0 0.00 0.00 0.00 74 1022.5
20210802055500 67 225 2.0 3.0 0.00 0.00 0.00 74 1022.4
20210802054502 67 225 2.0 3.0 0.00 0.00 0.00 73 1022.4
20210802053558 67 225 1.0 1.0 0.00 0.00 0.00 72 1022.5
20210802052601 67 225 1.0 1.0 0.00 0.00 0.00 72 1022.5
20210802052459 68 225 1.0 2.0 0.00 0.00 0.00 72 1022.5
20210802051500 68 225 2.0 3.0 0.00 0.00 0.00 71 1022.5
20210802050558 68 247 2.0 2.0 0.00 0.00 0.00 72 1022.5
20210802045600 68 225 2.0 3.0 0.00 0.00 0.00 72 1022.6
20210802045459 68 225 2.0 2.0 0.00 0.00 0.00 72 1022.5
20210802043500 68 225 0.0 1.0 0.00 0.00 0.00 71 1022.5
20210802042558 68 244 1.0 3.0 0.00 0.00 0.00 71 1022.5
20210802041559 68 247 4.0 5.0 0.00 0.00 0.00 71 1022.4
20210802040600 69 225 3.0 4.0 0.00 0.00 0.00 69 1022.3
20210802035600 69 202 0.0 0.0 0.00 0.00 0.00 68 1022.3
20210802034600 69 212 4.0 5.0 0.00 0.00 0.00 67 1022.3
20210802033658 69 247 0.0 0.0 0.00 0.00 0.00 67 1022.0
20210802032659 70 247 2.0 4.0 0.00 0.00 0.00 66 1021.9
20210802032600 70 247 0.0 1.0 0.00 0.00 0.00 66 1021.9
20210802031559 70 202 2.0 3.0 0.00 0.00 0.00 66 1021.8
20210802030559 70 245 7.0 8.0 0.00 0.00 0.00 66 1021.9
20210802025600 70 239 8.0 10.0 0.00 0.00 0.00 65 1021.9
20210802025501 70 226 8.0 11.0 0.00 0.00 0.00 65 1021.9
20210802024559 70 245 8.0 9.0 0.00 0.00 0.00 66 1021.8
20210802023559 70 206 1.0 1.0 0.00 0.00 0.00 67 1021.8
20210802023459 70 225 1.0 2.0 0.00 0.00 0.00 67 1021.7
20210802022459 71 202 1.0 1.0 0.00 0.00 0.00 65 1021.8
20210802022400 71 202 0.0 1.0 0.00 0.00 0.00 64 1021.7
20210802021400 71 90 0.0 0.0 0.00 0.00 0.00 63 1021.7
20210802020359 72 90 0.0 0.0 0.00 0.00 0.00 61 1021.7
20210802020259 72 90 0.0 0.0 0.00 0.00 0.00 60 1021.8
20210802020157 72 90 0.0 0.0 0.00 0.00 0.00 60 1021.7
20210802015200 72 97 3.0 4.0 0.00 0.00 0.00 60 1021.9
20210802014200 72 112 0.0 0.0 0.00 0.00 0.00 61 1021.8
20210802013257 72 318 2.0 4.0 0.00 0.00 0.00 62 1021.7
20210802012259 71 244 9.0 11.0 0.00 0.00 0.00 62 1021.7
20210802011301 71 209 8.0 11.0 0.00 0.00 0.00 61 1021.8
20210802011159 71 211 8.0 11.0 0.00 0.00 0.00 60 1021.8
20210802010257 72 241 10.0 13.0 0.00 0.00 0.00 60 1021.9
20210802005259 72 199 6.0 10.0 0.00 0.00 0.00 60 1022.0
20210802004300 72 218 9.0 14.0 0.00 0.00 0.00 58 1022.0
20210802003300 73 215 10.0 13.0 0.00 0.00 0.00 56 1021.9
20210802002300 74 219 11.0 15.0 0.00 0.00 0.00 54 1022.0
20210802001358 74 221 9.0 12.0 0.00 0.00 0.00 53 1021.9
20210802000400 75 210 6.0 9.0 0.00 0.00 0.00 52 1021.9
20210801235400 75 199 5.0 7.0 0.00 0.00 0.00 51 1021.9
20210801234359 76 201 4.0 7.0 0.00 0.00 0.00 49 1021.9
20210801234259 76 204 6.0 10.0 0.00 0.00 0.00 48 1021.9
20210801233300 77 200 5.0 8.0 0.00 0.00 0.00 46 1022.0
20210801232358 77 208 5.0 9.0 0.00 0.00 0.00 46 1022.1
20210801231402 77 220 6.0 8.0 0.00 0.00 0.00 45 1022.1
20210801230359 78 231 8.0 11.0 0.00 0.00 0.00 44 1022.1
20210801225358 79 232 3.0 5.0 0.00 0.00 0.00 42 1022.1
20210801224457 78 207 1.0 5.0 0.00 0.00 0.00 43 1022.1